createdAt,value
2022-11-19T00:01:29.149Z,0.80
2022-11-19T00:03:57.004Z,0.80
2022-11-19T00:06:28.545Z,0.80
2022-11-19T00:08:57.800Z,0.90
2022-11-19T00:11:47.078Z,0.90
2022-11-19T00:14:16.124Z,0.90
2022-11-19T00:16:44.785Z,0.80
2022-11-19T00:19:13.711Z,0.80
2022-11-19T00:21:41.024Z,0.90
2022-11-19T00:24:10.615Z,0.90
2022-11-19T00:26:37.787Z,0.80
2022-11-19T00:29:06.997Z,0.80
2022-11-19T00:31:35.275Z,0.80
2022-11-19T00:34:02.429Z,0.90
2022-11-19T00:36:29.768Z,0.90
2022-11-19T00:38:57.033Z,0.80
2022-11-19T00:41:24.296Z,0.80
2022-11-19T00:43:53.620Z,0.90
2022-11-19T00:46:22.316Z,0.80
2022-11-19T00:48:51.316Z,0.70
2022-11-19T00:51:21.062Z,0.80
2022-11-19T00:53:48.610Z,0.70
2022-11-19T00:56:18.352Z,0.60
2022-11-19T00:58:46.610Z,0.50
2022-11-19T01:01:15.472Z,0.50
2022-11-19T01:03:45.795Z,0.50
2022-11-19T01:06:18.888Z,0.40
2022-11-19T01:08:51.303Z,0.30
2022-11-19T01:11:22.350Z,0.20
2022-11-19T01:13:50.034Z,0.30
2022-11-19T01:16:36.313Z,0.40
2022-11-19T01:19:06.250Z,0.30
2022-11-19T01:21:35.499Z,0.40
2022-11-19T01:24:05.209Z,0.20
2022-11-19T01:26:34.460Z,0.20
2022-11-19T01:29:03.358Z,0.10
2022-11-19T01:31:30.833Z,0.10
2022-11-19T01:33:59.990Z,0.20
2022-11-19T01:36:30.244Z,0.20
2022-11-19T01:38:58.020Z,0.20
2022-11-19T01:41:28.784Z,0.20
2022-11-19T01:44:07.674Z,0.20
2022-11-19T01:46:40.010Z,0.20
2022-11-19T01:49:12.457Z,0.20
2022-11-19T01:51:46.035Z,0.20
2022-11-19T01:54:26.634Z,0.30
2022-11-19T01:56:56.127Z,0.30
2022-11-19T01:59:23.801Z,0.30
2022-11-19T02:01:52.447Z,0.40
2022-11-19T02:04:20.951Z,0.40
2022-11-19T02:06:48.610Z,0.30
2022-11-19T02:09:15.806Z,0.30
2022-11-19T02:11:52.190Z,0.40
2022-11-19T02:14:31.801Z,0.30
2022-11-19T02:17:21.241Z,0.30
2022-11-19T02:20:23.843Z,0.40
2022-11-19T02:23:18.697Z,0.40
2022-11-19T02:26:00.167Z,0.40
2022-11-19T02:28:41.429Z,0.40
2022-11-19T02:31:13.914Z,0.20
2022-11-19T02:33:56.599Z,0.30
2022-11-19T02:36:54.873Z,0.10
2022-11-19T02:39:26.050Z,0.10
2022-11-19T02:42:03.326Z,0.20
2022-11-19T02:45:02.409Z,0.30
2022-11-19T02:47:45.449Z,0.30
2022-11-19T02:50:20.917Z,0.30
2022-11-19T02:52:48.801Z,0.20
2022-11-19T02:55:19.249Z,0.30
2022-11-19T02:58:11.911Z,0.20
2022-11-19T03:01:07.561Z,0.20
2022-11-19T03:03:54.462Z,0.10
2022-11-19T03:06:26.206Z,0.20
2022-11-19T03:08:53.571Z,0.20
2022-11-19T03:11:23.233Z,0.10
2022-11-19T03:14:15.497Z,0.10
2022-11-19T03:16:50.300Z,0.10
2022-11-19T03:19:28.623Z,0.10
2022-11-19T03:22:21.339Z,0.00
2022-11-19T03:25:13.074Z,0.10
2022-11-19T03:27:48.286Z,0.00
2022-11-19T03:30:18.124Z,-0.10
2022-11-19T03:32:55.297Z,-0.10
2022-11-19T03:35:28.490Z,0.00
2022-11-19T03:38:01.565Z,0.10
2022-11-19T03:40:31.799Z,0.20
2022-11-19T03:43:04.500Z,0.10
2022-11-19T03:45:39.491Z,0.10
2022-11-19T03:48:07.824Z,0.10
2022-11-19T03:50:58.264Z,0.20
2022-11-19T03:53:26.225Z,0.10
2022-11-19T03:56:02.767Z,0.00
2022-11-19T03:58:35.324Z,0.00
2022-11-19T04:01:02.861Z,0.10
2022-11-19T04:03:31.005Z,0.00
2022-11-19T04:05:58.246Z,-0.10
2022-11-19T04:08:25.826Z,-0.10
2022-11-19T04:10:53.034Z,0.00
2022-11-19T04:13:20.262Z,0.00
2022-11-19T04:15:47.492Z,0.00
2022-11-19T04:18:14.676Z,0.10
2022-11-19T04:20:44.336Z,0.10
2022-11-19T04:23:11.422Z,-0.10
2022-11-19T04:25:41.496Z,0.10
2022-11-19T04:28:08.686Z,0.00
2022-11-19T04:30:35.946Z,0.00
2022-11-19T04:33:04.181Z,0.00
2022-11-19T04:35:32.336Z,0.10
2022-11-19T04:37:59.854Z,0.00
2022-11-19T04:40:28.284Z,0.10
2022-11-19T04:42:56.053Z,0.00
2022-11-19T04:45:23.237Z,0.00
2022-11-19T04:47:51.382Z,-0.20
2022-11-19T04:50:18.988Z,-0.10
2022-11-19T04:52:48.278Z,-0.20
2022-11-19T04:55:15.796Z,-0.20
2022-11-19T04:57:43.569Z,-0.20
2022-11-19T05:00:12.768Z,-0.10
2022-11-19T05:02:40.984Z,-0.10
2022-11-19T05:05:08.678Z,-0.20
2022-11-19T05:07:38.373Z,-0.10
2022-11-19T05:10:06.309Z,-0.10
2022-11-19T05:12:33.498Z,0.00
2022-11-19T05:15:00.680Z,-0.10
2022-11-19T05:17:28.882Z,0.00
2022-11-19T05:20:00.391Z,-0.20
2022-11-19T05:22:27.636Z,-0.20
2022-11-19T05:24:55.810Z,-0.30
2022-11-19T05:27:23.096Z,-0.10
2022-11-19T05:29:51.174Z,-0.10
2022-11-19T05:32:19.468Z,-0.10
2022-11-19T05:34:47.095Z,-0.30
2022-11-19T05:37:14.853Z,-0.20
2022-11-19T05:39:42.093Z,-0.10
2022-11-19T05:42:09.523Z,-0.20
2022-11-19T05:44:36.673Z,-0.10
2022-11-19T05:47:04.926Z,-0.20
2022-11-19T05:49:32.146Z,-0.20
2022-11-19T05:51:59.296Z,-0.20
2022-11-19T05:54:27.559Z,-0.20
2022-11-19T05:56:54.902Z,-0.20
2022-11-19T05:59:22.264Z,-0.10
2022-11-19T06:01:49.803Z,-0.10
2022-11-19T06:04:16.968Z,-0.10
2022-11-19T06:06:44.181Z,-0.10
2022-11-19T06:09:12.026Z,-0.20
2022-11-19T06:11:48.038Z,-0.20
2022-11-19T06:14:22.331Z,-0.10
2022-11-19T06:16:54.915Z,-0.10
2022-11-19T06:19:24.326Z,-0.10
2022-11-19T06:22:10.205Z,-0.10
2022-11-19T06:24:42.179Z,-0.20
2022-11-19T06:27:09.337Z,-0.30
2022-11-19T06:29:36.593Z,-0.20
2022-11-19T06:32:03.937Z,-0.20
2022-11-19T06:34:31.441Z,-0.20
2022-11-19T06:37:00.641Z,-0.20
2022-11-19T06:39:28.809Z,-0.20
2022-11-19T06:42:15.994Z,-0.30
2022-11-19T06:44:45.150Z,-0.20
2022-11-19T06:47:12.862Z,-0.10
2022-11-19T06:49:40.191Z,-0.30
2022-11-19T06:52:10.371Z,-0.20
2022-11-19T06:54:40.326Z,-0.20
2022-11-19T06:57:10.552Z,-0.10
2022-11-19T06:59:39.174Z,-0.10
2022-11-19T07:02:07.719Z,0.00
2022-11-19T07:04:35.912Z,0.00
2022-11-19T07:07:03.944Z,0.00
2022-11-19T07:09:31.602Z,0.00
2022-11-19T07:11:58.741Z,0.00
2022-11-19T07:14:26.844Z,0.10
2022-11-19T07:16:54.035Z,-0.10
2022-11-19T07:19:21.518Z,-0.10
2022-11-19T07:21:49.122Z,0.00
2022-11-19T07:24:18.256Z,0.00
2022-11-19T07:26:45.493Z,-0.10
2022-11-19T07:29:14.643Z,0.00
2022-11-19T07:31:42.911Z,0.00
2022-11-19T07:34:11.101Z,0.00
2022-11-19T07:36:38.350Z,0.00
2022-11-19T07:39:05.978Z,0.10
2022-11-19T07:41:51.553Z,0.10
2022-11-19T07:44:19.065Z,0.10
2022-11-19T07:46:47.688Z,0.10
2022-11-19T07:49:15.019Z,0.10
2022-11-19T07:51:42.530Z,0.30
2022-11-19T07:54:12.024Z,0.20
2022-11-19T07:56:40.753Z,0.20
2022-11-19T07:59:07.940Z,0.20
2022-11-19T08:01:36.298Z,0.20
2022-11-19T08:04:05.440Z,0.30
2022-11-19T08:06:36.500Z,0.30
2022-11-19T08:09:05.410Z,0.50
2022-11-19T08:11:32.740Z,0.20
2022-11-19T08:14:03.406Z,0.20
2022-11-19T08:16:51.761Z,0.40
2022-11-19T08:19:19.366Z,0.50
2022-11-19T08:21:47.835Z,0.70
2022-11-19T08:24:17.945Z,0.80
2022-11-19T08:26:46.532Z,0.80
2022-11-19T08:29:16.895Z,0.70
2022-11-19T08:31:47.969Z,0.70
2022-11-19T08:34:16.448Z,0.60
2022-11-19T08:36:44.929Z,0.70
2022-11-19T08:39:12.198Z,1.00
2022-11-19T08:41:57.803Z,0.90
2022-11-19T08:44:25.308Z,0.90
2022-11-19T08:46:52.528Z,0.80
2022-11-19T08:49:20.032Z,0.90
2022-11-19T08:51:47.235Z,0.90
2022-11-19T08:54:14.502Z,0.80
2022-11-19T08:56:41.682Z,1.00
2022-11-19T08:59:09.444Z,1.00
2022-11-19T09:01:39.297Z,1.00
2022-11-19T09:04:06.680Z,1.20
2022-11-19T09:06:36.814Z,1.30
2022-11-19T09:09:05.502Z,1.40
2022-11-19T09:11:32.934Z,1.40
2022-11-19T09:14:00.184Z,1.40
2022-11-19T09:16:28.063Z,1.30
2022-11-19T09:18:55.313Z,1.30
2022-11-19T09:21:23.443Z,1.10
2022-11-19T09:23:52.255Z,1.10
2022-11-19T09:26:21.435Z,0.80
2022-11-19T09:28:50.684Z,0.90
2022-11-19T09:31:20.175Z,1.00
2022-11-19T09:33:52.805Z,1.00
2022-11-19T09:36:21.660Z,1.20
2022-11-19T09:38:49.275Z,1.20
2022-11-19T09:41:47.752Z,1.20
2022-11-19T09:44:57.265Z,1.30
2022-11-19T09:47:31.304Z,1.30
2022-11-19T09:50:20.032Z,1.20
2022-11-19T09:53:15.591Z,1.30
2022-11-19T09:55:47.016Z,1.40
2022-11-19T09:58:36.879Z,1.70
2022-11-19T10:01:12.520Z,1.70
2022-11-19T10:03:51.537Z,1.70
2022-11-19T10:06:56.841Z,1.70
2022-11-19T10:09:57.418Z,1.70
2022-11-19T10:12:50.452Z,1.70
2022-11-19T10:15:38.062Z,1.70
2022-11-19T10:18:36.994Z,1.70
2022-11-19T10:21:18.245Z,1.50
2022-11-19T10:24:01.033Z,1.60
2022-11-19T10:26:35.466Z,1.80
2022-11-19T10:29:12.812Z,1.90
2022-11-19T10:31:47.901Z,1.90
2022-11-19T10:34:15.157Z,1.90
2022-11-19T10:36:56.013Z,1.70
2022-11-19T10:40:02.612Z,1.70
2022-11-19T10:43:16.291Z,1.50
2022-11-19T10:45:48.930Z,1.60
2022-11-19T10:48:49.389Z,1.70
2022-11-19T10:51:42.360Z,1.60
2022-11-19T10:54:27.926Z,1.70
2022-11-19T10:56:58.274Z,1.90
2022-11-19T10:59:30.423Z,2.00
2022-11-19T11:02:17.409Z,2.90
2022-11-19T11:05:05.788Z,5.40
2022-11-19T11:07:55.902Z,6.80
2022-11-19T11:10:37.632Z,5.30
2022-11-19T11:13:46.489Z,3.50
2022-11-19T11:16:26.300Z,2.60
2022-11-19T11:18:59.159Z,2.20
2022-11-19T11:21:35.656Z,2.40
2022-11-19T11:24:04.906Z,2.50
2022-11-19T11:26:34.809Z,2.50
2022-11-19T11:29:26.733Z,2.30
2022-11-19T11:31:54.086Z,2.40
2022-11-19T11:34:36.360Z,2.20
2022-11-19T11:37:06.352Z,2.10
2022-11-19T11:39:40.378Z,2.20
2022-11-19T11:42:17.587Z,2.30
2022-11-19T11:45:07.956Z,2.80
2022-11-19T11:47:40.453Z,2.70
2022-11-19T11:50:27.512Z,2.40
2022-11-19T11:52:59.930Z,2.30
2022-11-19T11:55:27.395Z,2.40
2022-11-19T11:58:24.232Z,2.20
2022-11-19T12:01:15.380Z,2.20
2022-11-19T12:03:55.454Z,2.10
2022-11-19T12:06:48.970Z,2.20
2022-11-19T12:09:22.413Z,2.10
2022-11-19T12:12:23.521Z,2.20
2022-11-19T12:15:29.416Z,1.90
2022-11-19T12:18:13.776Z,1.80
2022-11-19T12:20:48.680Z,1.80
2022-11-19T12:23:20.766Z,2.00
2022-11-19T12:25:59.977Z,1.80
2022-11-19T12:28:35.604Z,1.80
2022-11-19T12:31:30.228Z,1.80
2022-11-19T12:34:48.774Z,2.00
2022-11-19T12:37:30.754Z,2.00
2022-11-19T12:40:01.061Z,1.80
2022-11-19T12:42:48.150Z,1.80
2022-11-19T12:45:42.083Z,1.80
2022-11-19T12:48:28.494Z,1.90
2022-11-19T12:51:16.160Z,1.80
2022-11-19T12:53:57.087Z,1.90
2022-11-19T12:56:39.707Z,1.90
2022-11-19T12:59:35.719Z,1.50
2022-11-19T13:02:15.546Z,1.50
2022-11-19T13:04:58.516Z,1.20
2022-11-19T13:07:53.107Z,1.40
2022-11-19T13:10:50.754Z,1.50
2022-11-19T13:13:58.274Z,1.50
2022-11-19T13:16:28.931Z,1.50
2022-11-19T13:19:22.811Z,1.50
2022-11-19T13:21:57.337Z,1.40
2022-11-19T13:24:27.588Z,1.30
2022-11-19T13:26:59.912Z,1.30
2022-11-19T13:29:54.374Z,1.30
2022-11-19T13:32:41.205Z,1.30
2022-11-19T13:35:14.189Z,1.00
2022-11-19T13:38:08.787Z,1.00
2022-11-19T13:41:06.084Z,1.10
2022-11-19T13:43:52.930Z,1.20
2022-11-19T13:46:37.430Z,1.20
2022-11-19T13:49:20.324Z,1.20
2022-11-19T13:52:17.454Z,1.20
2022-11-19T13:54:46.121Z,1.30
2022-11-19T13:57:43.111Z,1.20
2022-11-19T14:00:25.560Z,1.10
2022-11-19T14:02:55.584Z,1.00
2022-11-19T14:05:32.070Z,1.10
2022-11-19T14:08:06.488Z,1.00
2022-11-19T14:10:40.288Z,1.10
2022-11-19T14:13:26.034Z,1.10
2022-11-19T14:16:47.638Z,1.10
2022-11-19T14:19:37.025Z,1.10
2022-11-19T14:22:53.027Z,1.10
2022-11-19T14:25:57.753Z,1.10
2022-11-19T14:28:42.055Z,1.10
2022-11-19T14:31:09.587Z,1.10
2022-11-19T14:33:49.001Z,1.10
2022-11-19T14:36:41.769Z,1.00
2022-11-19T14:39:21.608Z,1.10
2022-11-19T14:42:16.853Z,1.10
2022-11-19T14:44:46.254Z,1.10
2022-11-19T14:47:22.810Z,1.10
2022-11-19T14:49:56.078Z,1.10
2022-11-19T14:52:34.098Z,1.00
2022-11-19T14:55:17.887Z,0.90
2022-11-19T14:57:53.571Z,0.80
2022-11-19T15:00:20.833Z,0.80
2022-11-19T15:02:51.695Z,0.80
2022-11-19T15:05:29.307Z,0.90
2022-11-19T15:08:18.265Z,0.90
2022-11-19T15:11:09.910Z,0.90
2022-11-19T15:13:40.277Z,0.80
2022-11-19T15:16:08.451Z,0.80
2022-11-19T15:18:41.726Z,0.80
2022-11-19T15:21:43.119Z,0.80
2022-11-19T15:24:39.539Z,0.80
2022-11-19T15:27:18.816Z,0.80
2022-11-19T15:30:05.407Z,0.70
2022-11-19T15:32:40.256Z,0.70
2022-11-19T15:35:16.288Z,0.70
2022-11-19T15:38:04.273Z,0.70
2022-11-19T15:40:34.362Z,0.70
2022-11-19T15:43:23.447Z,0.80
2022-11-19T15:45:56.524Z,0.70
2022-11-19T15:49:05.761Z,0.70
2022-11-19T15:51:41.635Z,0.70
2022-11-19T15:54:12.532Z,0.70
2022-11-19T15:56:46.891Z,0.70
2022-11-19T15:59:17.311Z,0.80
2022-11-19T16:01:45.172Z,0.70
2022-11-19T16:04:17.610Z,0.70
2022-11-19T16:06:56.095Z,0.60
2022-11-19T16:09:25.499Z,0.60
2022-11-19T16:12:12.207Z,0.70
2022-11-19T16:14:58.138Z,0.70
2022-11-19T16:17:39.793Z,0.70
2022-11-19T16:20:17.897Z,0.60
2022-11-19T16:23:05.171Z,0.60
2022-11-19T16:25:36.921Z,0.60
2022-11-19T16:28:13.307Z,0.50
2022-11-19T16:30:53.211Z,0.60
2022-11-19T16:33:27.821Z,0.50
2022-11-19T16:36:25.424Z,0.60
2022-11-19T16:38:54.813Z,0.60
2022-11-19T16:41:44.925Z,0.70
2022-11-19T16:44:17.759Z,0.60
2022-11-19T16:46:47.576Z,0.60
2022-11-19T16:49:31.434Z,0.60
2022-11-19T16:52:00.474Z,0.50
2022-11-19T16:54:50.056Z,0.50
2022-11-19T16:57:23.913Z,0.40
2022-11-19T16:59:55.078Z,0.30
2022-11-19T17:02:28.613Z,0.30
2022-11-19T17:05:02.968Z,0.30
2022-11-19T17:07:30.568Z,0.30
2022-11-19T17:10:34.414Z,0.30
2022-11-19T17:13:12.861Z,0.30
2022-11-19T17:15:42.612Z,0.20
2022-11-19T17:18:20.435Z,0.20
2022-11-19T17:20:47.506Z,0.20
2022-11-19T17:23:23.354Z,0.30
2022-11-19T17:26:01.001Z,0.40
2022-11-19T17:28:30.742Z,0.40
2022-11-19T17:30:59.251Z,0.40
2022-11-19T17:33:26.433Z,0.40
2022-11-19T17:35:53.565Z,0.40
2022-11-19T17:38:30.069Z,0.40
2022-11-19T17:41:02.239Z,0.40
2022-11-19T17:43:56.878Z,0.40
2022-11-19T17:46:26.693Z,0.40
2022-11-19T17:48:55.032Z,0.30
2022-11-19T17:51:24.102Z,0.40
2022-11-19T17:53:53.594Z,0.30
2022-11-19T17:56:28.089Z,0.50
2022-11-19T17:58:55.890Z,0.40
2022-11-19T18:01:23.567Z,0.40
2022-11-19T18:03:51.042Z,0.40
2022-11-19T18:06:19.337Z,0.40
2022-11-19T18:08:46.762Z,0.40
2022-11-19T18:11:25.607Z,0.40
2022-11-19T18:13:57.992Z,0.40
2022-11-19T18:16:27.599Z,0.40
2022-11-19T18:18:54.831Z,0.30
2022-11-19T18:21:23.621Z,0.40
2022-11-19T18:23:52.292Z,0.40
2022-11-19T18:26:24.756Z,0.40
2022-11-19T18:28:53.067Z,0.40
2022-11-19T18:31:28.490Z,0.40
2022-11-19T18:33:57.000Z,0.40
2022-11-19T18:36:25.397Z,0.40
2022-11-19T18:38:53.444Z,0.40
2022-11-19T18:41:20.599Z,0.40
2022-11-19T18:44:07.197Z,0.40
2022-11-19T18:46:34.451Z,0.40
2022-11-19T18:49:01.660Z,0.50
2022-11-19T18:51:31.448Z,0.50
2022-11-19T18:53:59.050Z,0.50
2022-11-19T18:56:26.525Z,0.40
2022-11-19T18:58:54.542Z,0.50
2022-11-19T19:01:24.203Z,0.50
2022-11-19T19:03:52.672Z,0.50
2022-11-19T19:06:21.113Z,0.50
2022-11-19T19:08:49.652Z,0.50
2022-11-19T19:11:35.785Z,0.50
2022-11-19T19:14:04.280Z,0.50
2022-11-19T19:16:32.327Z,0.50
2022-11-19T19:19:00.608Z,0.50
2022-11-19T19:21:28.943Z,0.50
2022-11-19T19:23:56.264Z,0.50
2022-11-19T19:26:24.607Z,0.50
2022-11-19T19:28:54.853Z,0.50
2022-11-19T19:31:23.400Z,0.50
2022-11-19T19:33:51.871Z,0.40
2022-11-19T19:36:20.343Z,0.50
2022-11-19T19:38:47.799Z,0.50
2022-11-19T19:41:21.271Z,0.50
2022-11-19T19:43:49.588Z,0.50
2022-11-19T19:46:19.402Z,0.50
2022-11-19T19:48:49.162Z,0.50
2022-11-19T19:51:17.444Z,0.50
2022-11-19T19:53:45.113Z,0.50
2022-11-19T19:56:14.862Z,0.50
2022-11-19T19:58:46.720Z,0.50
2022-11-19T20:01:17.938Z,0.50
2022-11-19T20:03:47.318Z,0.50
2022-11-19T20:06:18.212Z,0.50
2022-11-19T20:08:46.003Z,0.40
2022-11-19T20:11:15.988Z,0.50
2022-11-19T20:13:43.873Z,0.60
2022-11-19T20:16:18.489Z,0.60
2022-11-19T20:18:48.187Z,0.70
2022-11-19T20:21:18.518Z,0.70
2022-11-19T20:23:46.262Z,0.70
2022-11-19T20:26:20.362Z,0.70
2022-11-19T20:28:48.206Z,0.60
2022-11-19T20:31:19.428Z,0.60
2022-11-19T20:33:52.464Z,0.60
2022-11-19T20:36:19.808Z,0.60
2022-11-19T20:38:47.319Z,0.50
2022-11-19T20:41:35.819Z,0.60
2022-11-19T20:44:20.811Z,0.60
2022-11-19T20:46:49.661Z,0.60
2022-11-19T20:49:18.412Z,0.60
2022-11-19T20:51:45.941Z,0.60
2022-11-19T20:54:14.269Z,0.60
2022-11-19T20:56:42.471Z,0.60
2022-11-19T20:59:10.378Z,0.60
2022-11-19T21:01:38.386Z,0.60
2022-11-19T21:04:06.325Z,0.70
2022-11-19T21:06:33.960Z,0.70
2022-11-19T21:09:01.264Z,0.70
2022-11-19T21:11:28.447Z,0.70
2022-11-19T21:13:55.730Z,0.60
2022-11-19T21:16:25.198Z,0.70
2022-11-19T21:18:52.712Z,0.70
2022-11-19T21:21:21.978Z,0.70
2022-11-19T21:23:49.358Z,0.70
2022-11-19T21:26:19.999Z,0.70
2022-11-19T21:28:54.388Z,0.80
2022-11-19T21:31:38.646Z,0.80
2022-11-19T21:34:06.907Z,0.70
2022-11-19T21:36:35.048Z,0.70
2022-11-19T21:39:04.199Z,0.60
2022-11-19T21:41:31.610Z,0.60
2022-11-19T21:43:59.000Z,0.60
2022-11-19T21:46:26.835Z,0.70
2022-11-19T21:48:54.557Z,0.70
2022-11-19T21:51:24.880Z,0.60
2022-11-19T21:53:56.914Z,0.60
2022-11-19T21:56:25.255Z,0.60
2022-11-19T21:58:52.399Z,0.60
2022-11-19T22:01:20.079Z,0.70
2022-11-19T22:03:47.718Z,0.70
2022-11-19T22:06:14.937Z,0.80
2022-11-19T22:08:42.656Z,0.70
2022-11-19T22:11:30.078Z,0.70
2022-11-19T22:14:02.913Z,0.80
2022-11-19T22:16:31.894Z,0.80
2022-11-19T22:18:59.349Z,0.80
2022-11-19T22:21:27.698Z,0.80
2022-11-19T22:23:55.321Z,0.80
2022-11-19T22:26:22.665Z,0.80
2022-11-19T22:28:49.942Z,0.80
2022-11-19T22:31:17.283Z,0.80
2022-11-19T22:33:44.472Z,0.80
2022-11-19T22:36:12.092Z,0.90
2022-11-19T22:38:39.971Z,0.90
2022-11-19T22:41:13.497Z,0.90
2022-11-19T22:43:42.198Z,0.80
2022-11-19T22:46:10.986Z,0.80
2022-11-19T22:48:38.680Z,0.70
2022-11-19T22:51:08.059Z,0.70
2022-11-19T22:53:38.994Z,0.70
2022-11-19T22:56:10.380Z,0.80
2022-11-19T22:58:38.989Z,0.70
2022-11-19T23:01:07.835Z,0.80
2022-11-19T23:03:35.595Z,0.80
2022-11-19T23:06:02.764Z,0.70
2022-11-19T23:08:29.852Z,0.70
2022-11-19T23:11:02.513Z,0.70
2022-11-19T23:13:34.487Z,0.70
2022-11-19T23:16:16.756Z,0.70
2022-11-19T23:18:52.589Z,0.70
2022-11-19T23:21:25.623Z,0.80
2022-11-19T23:23:53.172Z,0.70
2022-11-19T23:26:26.458Z,0.80
2022-11-19T23:28:54.931Z,0.90
2022-11-19T23:31:34.247Z,1.00
2022-11-19T23:34:01.487Z,1.10
2022-11-19T23:36:31.536Z,1.10
2022-11-19T23:39:00.301Z,1.00
2022-11-19T23:41:28.219Z,0.90
2022-11-19T23:43:56.115Z,0.90
2022-11-19T23:46:26.348Z,0.90
2022-11-19T23:48:55.886Z,0.90
2022-11-19T23:51:29.045Z,0.90
2022-11-19T23:53:57.211Z,0.80
2022-11-19T23:56:26.334Z,0.80
2022-11-19T23:58:53.904Z,0.70
